Rabbs, Texas
Current Conditions -  °F | °C
As of 12:15 AM on Saturday 29 Nov 2014 (Local Time) from K66R Reporting Station
Clear Clear  
Wind Chill: 53°   Ceiling: Unl
Heat Index: 53°   Visibility: 10mi
Dew Point: 52°   Wind: 5mph
Humidity: 97%   Direction: 180°S
Pressure: 30.11"   Gusts: NA
Location:  29.3984°N, 96.8256°W
Report Text: K66R 290615Z AUTO 18004KT 10SM CLR 12/11 A3011 RMK AO2 T01170112
Loading
Personal Weather Stations






























Interactive Weather Map New forecast layout! Learn more

10-Day Weather Forecast

Advertisements
Track Severe Weather on mobile